FDX478 CYVR-CYYC
Flight info
| Callsign | FDX478 |
|---|---|
| Flight time | 1h 2m |
| Altitude | 33000 |
| Route | DAPED DCT PETLI DCT MENBO Q983 NORET IGVEP7 |
| Aircraft | MD11/H-SDE1E2E3FGHIJ2J3J4J5M1RWXY/LB1D1 |
Departure
| Time | 2026-05-04 02:29 |
|---|---|
| Airport | Vancouver International Airport (CYVR) |
Arrival
| Time | 2026-05-04 03:32 |
|---|---|
| Airport | Calgary International Airport (CYYC) |
| Time | Latitude | Longitude | Altitude | Speed | Heading |
|---|---|---|---|---|---|
| 2026-05-04 02:18 | 49.18719 | -123.15597 | 35 ft | 0 kts | 0° |
| 2026-05-04 02:21 | 49.18713 | -123.15602 | 36 ft | 4 kts | 310° |
| 2026-05-04 02:21 | 49.18706 | -123.15588 | 36 ft | 3 kts | 333° |
| 2026-05-04 02:21 | 49.18686 | -123.15572 | 30 ft | 4 kts | 319° |
| 2026-05-04 02:21 | 49.18671 | -123.15545 | 30 ft | 4 kts | 289° |
| 2026-05-04 02:22 | 49.18666 | -123.15507 | 29 ft | 4 kts | 269° |
| 2026-05-04 02:22 | 49.18666 | -123.15480 | 29 ft | 1 kts | 268° |
| 2026-05-04 02:22 | 49.18666 | -123.15476 | 29 ft | 0 kts | 268° |
| 2026-05-04 02:25 | 49.18666 | -123.15475 | 30 ft | 0 kts | 268° |
| 2026-05-04 02:27 | 49.18666 | -123.15509 | 30 ft | 8 kts | 269° |
| 2026-05-04 02:27 | 49.18632 | -123.15621 | 31 ft | 16 kts | 238° |
| 2026-05-04 02:27 | 49.18561 | -123.15733 | 31 ft | 13 kts | 202° |
| 2026-05-04 02:27 | 49.18488 | -123.15762 | 32 ft | 9 kts | 193° |
| 2026-05-04 02:28 | 49.18450 | -123.15808 | 32 ft | 5 kts | 243° |
| 2026-05-04 02:28 | 49.18447 | -123.15845 | 33 ft | 2 kts | 272° |
| 2026-05-04 02:28 | 49.18452 | -123.15891 | 33 ft | 14 kts | 278° |
| 2026-05-04 02:28 | 49.18519 | -123.16487 | 30 ft | 101 kts | 280° |
| 2026-05-04 02:29 | 49.18681 | -123.17941 | 34 ft | 172 kts | 280° |
| 2026-05-04 02:29 | 49.18882 | -123.19883 | 461 ft | 191 kts | 280° |
| 2026-05-04 02:29 | 49.19091 | -123.21847 | 1506 ft | 182 kts | 280° |
| 2026-05-04 02:29 | 49.19231 | -123.23778 | 2397 ft | 184 kts | 270° |
| 2026-05-04 02:30 | 49.19122 | -123.25739 | 3221 ft | 189 kts | 264° |
| 2026-05-04 02:30 | 49.18949 | -123.27906 | 3470 ft | 222 kts | 264° |
| 2026-05-04 02:30 | 49.18703 | -123.30342 | 3620 ft | 248 kts | 258° |
| 2026-05-04 02:30 | 49.18134 | -123.32958 | 3861 ft | 269 kts | 247° |
| 2026-05-04 02:31 | 49.17211 | -123.35468 | 4531 ft | 271 kts | 235° |
| 2026-05-04 02:31 | 49.15995 | -123.37717 | 5244 ft | 278 kts | 225° |
| 2026-05-04 02:31 | 49.14510 | -123.39644 | 5946 ft | 283 kts | 216° |
| 2026-05-04 02:31 | 49.12848 | -123.41299 | 6628 ft | 287 kts | 203° |
| 2026-05-04 02:32 | 49.10919 | -123.41961 | 7384 ft | 286 kts | 177° |
| 2026-05-04 02:32 | 49.08995 | -123.41305 | 8105 ft | 285 kts | 152° |
| 2026-05-04 02:32 | 49.07472 | -123.39487 | 8839 ft | 284 kts | 126° |
| 2026-05-04 02:32 | 49.06606 | -123.36823 | 9560 ft | 283 kts | 101° |
| 2026-05-04 02:33 | 49.06517 | -123.33830 | 10164 ft | 288 kts | 84° |
| 2026-05-04 02:33 | 49.06775 | -123.30661 | 10299 ft | 314 kts | 81° |
| 2026-05-04 02:33 | 49.07106 | -123.27241 | 10421 ft | 338 kts | 81° |
| 2026-05-04 02:33 | 49.07424 | -123.23581 | 10756 ft | 354 kts | 82° |
| 2026-05-04 02:34 | 49.07705 | -123.19819 | 11443 ft | 359 kts | 83° |
| 2026-05-04 02:34 | 49.07954 | -123.16020 | 12136 ft | 364 kts | 83° |
| 2026-05-04 02:34 | 49.08184 | -123.12147 | 12827 ft | 369 kts | 84° |
| 2026-05-04 02:34 | 49.08401 | -123.08268 | 13495 ft | 375 kts | 84° |
| 2026-05-04 02:35 | 49.08615 | -123.04276 | 14112 ft | 379 kts | 84° |
| 2026-05-04 02:35 | 49.08825 | -123.00246 | 14742 ft | 383 kts | 84° |
| 2026-05-04 02:35 | 49.09034 | -122.96174 | 15357 ft | 387 kts | 84° |
| 2026-05-04 02:35 | 49.09247 | -122.92056 | 15985 ft | 391 kts | 84° |
| 2026-05-04 02:36 | 49.09461 | -122.87903 | 16605 ft | 395 kts | 84° |
| 2026-05-04 02:36 | 49.09676 | -122.83705 | 17237 ft | 398 kts | 83° |
| 2026-05-04 02:36 | 49.09889 | -122.79471 | 17848 ft | 402 kts | 83° |
| 2026-05-04 02:36 | 49.10102 | -122.75196 | 18419 ft | 406 kts | 83° |
| 2026-05-04 02:37 | 49.10315 | -122.70884 | 18954 ft | 409 kts | 83° |
| 2026-05-04 02:37 | 49.10524 | -122.66594 | 19484 ft | 412 kts | 83° |
| 2026-05-04 02:37 | 49.10735 | -122.62222 | 20009 ft | 415 kts | 83° |
| 2026-05-04 02:37 | 49.10947 | -122.57809 | 20525 ft | 419 kts | 83° |
| 2026-05-04 02:38 | 49.11159 | -122.53356 | 21031 ft | 422 kts | 83° |
| 2026-05-04 02:38 | 49.11371 | -122.48868 | 21553 ft | 426 kts | 83° |
| 2026-05-04 02:38 | 49.11583 | -122.44341 | 22077 ft | 429 kts | 83° |
| 2026-05-04 02:38 | 49.11794 | -122.39796 | 22577 ft | 432 kts | 83° |
| 2026-05-04 02:39 | 49.12005 | -122.35206 | 23093 ft | 435 kts | 83° |
| 2026-05-04 02:39 | 49.12216 | -122.30584 | 23572 ft | 438 kts | 83° |
| 2026-05-04 02:39 | 49.12423 | -122.25996 | 24008 ft | 440 kts | 83° |
| 2026-05-04 02:39 | 49.12632 | -122.21329 | 24458 ft | 442 kts | 83° |
| 2026-05-04 02:40 | 49.12839 | -122.16641 | 24925 ft | 444 kts | 83° |
| 2026-05-04 02:40 | 49.13041 | -122.11928 | 25377 ft | 446 kts | 83° |
| 2026-05-04 02:40 | 49.13225 | -122.07192 | 25831 ft | 448 kts | 83° |
| 2026-05-04 02:40 | 49.13407 | -122.02434 | 26247 ft | 450 kts | 83° |
| 2026-05-04 02:41 | 49.13595 | -121.97648 | 26638 ft | 453 kts | 83° |
| 2026-05-04 02:41 | 49.13787 | -121.92904 | 27055 ft | 455 kts | 83° |
| 2026-05-04 02:41 | 49.13985 | -121.88079 | 27470 ft | 457 kts | 83° |
| 2026-05-04 02:41 | 49.14184 | -121.83231 | 27883 ft | 458 kts | 83° |
| 2026-05-04 02:42 | 49.14384 | -121.78361 | 28302 ft | 460 kts | 83° |
| 2026-05-04 02:42 | 49.14583 | -121.73477 | 28712 ft | 462 kts | 83° |
| 2026-05-04 02:42 | 49.14826 | -121.68566 | 29026 ft | 465 kts | 81° |
| 2026-05-04 02:42 | 49.15188 | -121.63671 | 29495 ft | 465 kts | 79° |
| 2026-05-04 02:43 | 49.15616 | -121.58769 | 29922 ft | 466 kts | 78° |
| 2026-05-04 02:43 | 49.16071 | -121.53858 | 30348 ft | 466 kts | 78° |
| 2026-05-04 02:43 | 49.16520 | -121.49038 | 30893 ft | 463 kts | 78° |
| 2026-05-04 02:43 | 49.16965 | -121.44188 | 31454 ft | 459 kts | 77° |
| 2026-05-04 02:44 | 49.17402 | -121.39358 | 31830 ft | 459 kts | 77° |
| 2026-05-04 02:44 | 49.17830 | -121.34552 | 32218 ft | 456 kts | 77° |
| 2026-05-04 02:44 | 49.18252 | -121.29773 | 32605 ft | 452 kts | 77° |
| 2026-05-04 02:44 | 49.18669 | -121.25011 | 32827 ft | 452 kts | 77° |
| 2026-05-04 02:45 | 49.19495 | -121.15522 | 32915 ft | 450 kts | 77° |
| 2026-05-04 02:45 | 49.20308 | -121.06095 | 32909 ft | 451 kts | 77° |
| 2026-05-04 02:46 | 49.21121 | -120.96577 | 32906 ft | 452 kts | 77° |
| 2026-05-04 02:46 | 49.21924 | -120.87055 | 32914 ft | 451 kts | 77° |
| 2026-05-04 02:47 | 49.22720 | -120.77532 | 32925 ft | 452 kts | 77° |
| 2026-05-04 02:47 | 49.23508 | -120.68004 | 32940 ft | 451 kts | 77° |
| 2026-05-04 02:48 | 49.24286 | -120.58516 | 32938 ft | 454 kts | 77° |
| 2026-05-04 02:48 | 49.25062 | -120.48930 | 32941 ft | 454 kts | 77° |
| 2026-05-04 02:49 | 49.25806 | -120.39355 | 32939 ft | 455 kts | 77° |
| 2026-05-04 02:49 | 49.26526 | -120.29750 | 32936 ft | 454 kts | 77° |
| 2026-05-04 02:50 | 49.27259 | -120.20219 | 32947 ft | 454 kts | 77° |
| 2026-05-04 02:50 | 49.28005 | -120.10594 | 32922 ft | 456 kts | 77° |
| 2026-05-04 02:51 | 49.28746 | -120.00949 | 32923 ft | 456 kts | 77° |
| 2026-05-04 02:51 | 49.29478 | -119.91299 | 32889 ft | 456 kts | 77° |
| 2026-05-04 02:52 | 49.30080 | -119.83286 | 32880 ft | 456 kts | 77° |
| 2026-05-04 02:52 | 49.30913 | -119.72071 | 32893 ft | 457 kts | 78° |
| 2026-05-04 02:53 | 49.31847 | -119.62433 | 32871 ft | 454 kts | 68° |
| 2026-05-04 02:53 | 49.33805 | -119.55085 | 32869 ft | 446 kts | 58° |
| 2026-05-04 02:54 | 49.36715 | -119.46709 | 32875 ft | 445 kts | 57° |
| 2026-05-04 02:54 | 49.39606 | -119.38296 | 32875 ft | 446 kts | 58° |
| 2026-05-04 02:55 | 49.43815 | -119.25508 | 32884 ft | 450 kts | 58° |
| 2026-05-04 02:56 | 49.46583 | -119.16963 | 32885 ft | 450 kts | 58° |
| 2026-05-04 02:56 | 49.49343 | -119.08410 | 32898 ft | 444 kts | 58° |
| 2026-05-04 02:57 | 49.52089 | -118.99887 | 32905 ft | 445 kts | 58° |
| 2026-05-04 02:57 | 49.54822 | -118.91381 | 32917 ft | 449 kts | 58° |
| 2026-05-04 02:58 | 49.57588 | -118.82742 | 32914 ft | 450 kts | 58° |
| 2026-05-04 02:58 | 49.60350 | -118.74077 | 32917 ft | 450 kts | 58° |
| 2026-05-04 02:59 | 49.63108 | -118.65395 | 32921 ft | 451 kts | 58° |
| 2026-05-04 02:59 | 49.65857 | -118.56714 | 32936 ft | 451 kts | 59° |
| 2026-05-04 03:00 | 49.68595 | -118.48033 | 32919 ft | 454 kts | 59° |
| 2026-05-04 03:00 | 49.71322 | -118.39223 | 32920 ft | 455 kts | 59° |
| 2026-05-04 03:01 | 49.74058 | -118.30393 | 32914 ft | 456 kts | 59° |
| 2026-05-04 03:01 | 49.76804 | -118.21574 | 32916 ft | 455 kts | 59° |
| 2026-05-04 03:02 | 49.79558 | -118.12723 | 32905 ft | 458 kts | 59° |
| 2026-05-04 03:02 | 49.82296 | -118.03896 | 32914 ft | 458 kts | 59° |
| 2026-05-04 03:03 | 49.85047 | -117.94989 | 32897 ft | 458 kts | 59° |
| 2026-05-04 03:03 | 49.87787 | -117.86081 | 32914 ft | 457 kts | 59° |
| 2026-05-04 03:04 | 49.90522 | -117.77166 | 32903 ft | 458 kts | 59° |
| 2026-05-04 03:04 | 49.93225 | -117.68319 | 32913 ft | 458 kts | 59° |
| 2026-05-04 03:05 | 49.95945 | -117.59381 | 32915 ft | 458 kts | 59° |
| 2026-05-04 03:05 | 49.98660 | -117.50432 | 32909 ft | 458 kts | 59° |
| 2026-05-04 03:06 | 50.01369 | -117.41466 | 32922 ft | 459 kts | 59° |
| 2026-05-04 03:06 | 50.04072 | -117.32492 | 32920 ft | 462 kts | 59° |
| 2026-05-04 03:07 | 50.06761 | -117.23386 | 32920 ft | 464 kts | 60° |
| 2026-05-04 03:07 | 50.09455 | -117.14258 | 32919 ft | 463 kts | 60° |
| 2026-05-04 03:08 | 50.12158 | -117.05150 | 32950 ft | 464 kts | 60° |
| 2026-05-04 03:08 | 50.14873 | -116.96001 | 32925 ft | 466 kts | 59° |
| 2026-05-04 03:09 | 50.17569 | -116.86881 | 32916 ft | 467 kts | 59° |
| 2026-05-04 03:09 | 50.20276 | -116.77684 | 32911 ft | 466 kts | 60° |
| 2026-05-04 03:10 | 50.22978 | -116.68467 | 32923 ft | 467 kts | 60° |
| 2026-05-04 03:10 | 50.25678 | -116.59225 | 32936 ft | 469 kts | 60° |
| 2026-05-04 03:11 | 50.28386 | -116.49924 | 32938 ft | 471 kts | 60° |
| 2026-05-04 03:11 | 50.31069 | -116.40662 | 32935 ft | 470 kts | 60° |
| 2026-05-04 03:12 | 50.33759 | -116.31342 | 32933 ft | 470 kts | 60° |
| 2026-05-04 03:12 | 50.36398 | -116.22141 | 32677 ft | 460 kts | 59° |
| 2026-05-04 03:12 | 50.37714 | -116.17558 | 31784 ft | 460 kts | 60° |
| 2026-05-04 03:13 | 50.39023 | -116.12977 | 30946 ft | 462 kts | 60° |
| 2026-05-04 03:13 | 50.40282 | -116.08308 | 30150 ft | 469 kts | 63° |
| 2026-05-04 03:13 | 50.41425 | -116.03487 | 29376 ft | 474 kts | 65° |
| 2026-05-04 03:13 | 50.42493 | -115.98641 | 28726 ft | 478 kts | 66° |
| 2026-05-04 03:14 | 50.43561 | -115.93677 | 28139 ft | 482 kts | 66° |
| 2026-05-04 03:14 | 50.44630 | -115.88695 | 27525 ft | 481 kts | 66° |
| 2026-05-04 03:14 | 50.45696 | -115.83743 | 26965 ft | 477 kts | 66° |
| 2026-05-04 03:14 | 50.46762 | -115.78825 | 26356 ft | 475 kts | 66° |
| 2026-05-04 03:15 | 50.47827 | -115.73933 | 25773 ft | 473 kts | 66° |
| 2026-05-04 03:15 | 50.48885 | -115.69076 | 25198 ft | 468 kts | 66° |
| 2026-05-04 03:15 | 50.49931 | -115.64268 | 24635 ft | 464 kts | 66° |
| 2026-05-04 03:15 | 50.50969 | -115.59494 | 24090 ft | 460 kts | 66° |
| 2026-05-04 03:16 | 50.51998 | -115.54753 | 23527 ft | 457 kts | 66° |
| 2026-05-04 03:16 | 50.53003 | -115.50109 | 22900 ft | 452 kts | 66° |
| 2026-05-04 03:16 | 50.54005 | -115.45449 | 22326 ft | 448 kts | 66° |
| 2026-05-04 03:16 | 50.54990 | -115.40822 | 21773 ft | 444 kts | 66° |
| 2026-05-04 03:17 | 50.55964 | -115.36234 | 21173 ft | 440 kts | 66° |
| 2026-05-04 03:17 | 50.56932 | -115.31686 | 20618 ft | 438 kts | 66° |
| 2026-05-04 03:17 | 50.57900 | -115.27145 | 20052 ft | 437 kts | 66° |
| 2026-05-04 03:17 | 50.58854 | -115.22648 | 19492 ft | 430 kts | 66° |
| 2026-05-04 03:18 | 50.59797 | -115.18204 | 18954 ft | 427 kts | 66° |
| 2026-05-04 03:18 | 50.60725 | -115.13835 | 18403 ft | 425 kts | 66° |
| 2026-05-04 03:18 | 50.61655 | -115.09449 | 17787 ft | 420 kts | 66° |
| 2026-05-04 03:18 | 50.62574 | -115.05105 | 17207 ft | 416 kts | 67° |
| 2026-05-04 03:19 | 50.63481 | -115.00809 | 16653 ft | 411 kts | 68° |
| 2026-05-04 03:19 | 50.64379 | -114.96561 | 16155 ft | 409 kts | 68° |
| 2026-05-04 03:19 | 50.65277 | -114.92323 | 15619 ft | 410 kts | 68° |
| 2026-05-04 03:19 | 50.66178 | -114.88064 | 15090 ft | 409 kts | 68° |
| 2026-05-04 03:20 | 50.67064 | -114.83838 | 14563 ft | 404 kts | 69° |
| 2026-05-04 03:20 | 50.67938 | -114.79631 | 14063 ft | 403 kts | 70° |
| 2026-05-04 03:20 | 50.68791 | -114.75502 | 13542 ft | 401 kts | 70° |
| 2026-05-04 03:20 | 50.69647 | -114.71354 | 13104 ft | 394 kts | 70° |
| 2026-05-04 03:21 | 50.70549 | -114.67313 | 12721 ft | 388 kts | 63° |
| 2026-05-04 03:21 | 50.71952 | -114.63744 | 12345 ft | 379 kts | 49° |
| 2026-05-04 03:21 | 50.73678 | -114.60650 | 12083 ft | 372 kts | 43° |
| 2026-05-04 03:21 | 50.75494 | -114.57750 | 12058 ft | 371 kts | 41° |
| 2026-05-04 03:22 | 50.77325 | -114.54886 | 11928 ft | 366 kts | 40° |
| 2026-05-04 03:22 | 50.79067 | -114.52135 | 11530 ft | 352 kts | 41° |
| 2026-05-04 03:22 | 50.80733 | -114.49500 | 11153 ft | 326 kts | 40° |
| 2026-05-04 03:22 | 50.82294 | -114.47101 | 10797 ft | 300 kts | 39° |
| 2026-05-04 03:23 | 50.83767 | -114.44867 | 10516 ft | 289 kts | 39° |
| 2026-05-04 03:23 | 50.85202 | -114.42698 | 10138 ft | 282 kts | 39° |
| 2026-05-04 03:23 | 50.86601 | -114.40583 | 9765 ft | 275 kts | 39° |
| 2026-05-04 03:23 | 50.87971 | -114.38505 | 9365 ft | 270 kts | 39° |
| 2026-05-04 03:24 | 50.89297 | -114.36487 | 9158 ft | 258 kts | 39° |
| 2026-05-04 03:24 | 50.90512 | -114.34558 | 9046 ft | 245 kts | 44° |
| 2026-05-04 03:24 | 50.91383 | -114.32224 | 9003 ft | 254 kts | 68° |
| 2026-05-04 03:24 | 50.91616 | -114.29461 | 9033 ft | 249 kts | 83° |
| 2026-05-04 03:25 | 50.91586 | -114.26726 | 9017 ft | 248 kts | 86° |
| 2026-05-04 03:25 | 50.91516 | -114.24018 | 9014 ft | 240 kts | 87° |
| 2026-05-04 03:25 | 50.91441 | -114.21472 | 9000 ft | 228 kts | 86° |
| 2026-05-04 03:25 | 50.91374 | -114.18957 | 9006 ft | 229 kts | 86° |
| 2026-05-04 03:26 | 50.91322 | -114.16439 | 9002 ft | 228 kts | 84° |
| 2026-05-04 03:26 | 50.91311 | -114.13914 | 8766 ft | 230 kts | 83° |
| 2026-05-04 03:26 | 50.91307 | -114.11424 | 8425 ft | 224 kts | 83° |
| 2026-05-04 03:26 | 50.91306 | -114.08960 | 8142 ft | 223 kts | 83° |
| 2026-05-04 03:27 | 50.91366 | -114.06567 | 7856 ft | 216 kts | 73° |
| 2026-05-04 03:27 | 50.91858 | -114.04424 | 7495 ft | 200 kts | 48° |
| 2026-05-04 03:27 | 50.92824 | -114.03004 | 7153 ft | 184 kts | 23° |
| 2026-05-04 03:27 | 50.93976 | -114.02472 | 6785 ft | 164 kts | 3° |
| 2026-05-04 03:28 | 50.95082 | -114.02403 | 6509 ft | 158 kts | 1° |
| 2026-05-04 03:28 | 50.96181 | -114.02358 | 6255 ft | 157 kts | 2° |
| 2026-05-04 03:28 | 50.97261 | -114.02322 | 5955 ft | 154 kts | 2° |
| 2026-05-04 03:28 | 50.98323 | -114.02292 | 5689 ft | 155 kts | 1° |
| 2026-05-04 03:29 | 50.99388 | -114.02267 | 5408 ft | 152 kts | 2° |
| 2026-05-04 03:29 | 51.00431 | -114.02249 | 5227 ft | 149 kts | 2° |
| 2026-05-04 03:29 | 51.01466 | -114.02232 | 5193 ft | 150 kts | 2° |
| 2026-05-04 03:29 | 51.02526 | -114.02218 | 4990 ft | 153 kts | 2° |
| 2026-05-04 03:30 | 51.03570 | -114.02208 | 4780 ft | 149 kts | 2° |
| 2026-05-04 03:30 | 51.04603 | -114.02199 | 4556 ft | 148 kts | 2° |
| 2026-05-04 03:30 | 51.05639 | -114.02190 | 4233 ft | 150 kts | 4° |
| 2026-05-04 03:30 | 51.06685 | -114.02163 | 4071 ft | 153 kts | 4° |
| 2026-05-04 03:31 | 51.07751 | -114.02173 | 3897 ft | 159 kts | 4° |
| 2026-05-04 03:31 | 51.08849 | -114.02158 | 3785 ft | 157 kts | 5° |
| 2026-05-04 03:31 | 51.09934 | -114.02153 | 3582 ft | 156 kts | 4° |
| 2026-05-04 03:31 | 51.10850 | -114.02128 | 3562 ft | 109 kts | 1° |
| 2026-05-04 03:32 | 51.11487 | -114.02134 | 3556 ft | 71 kts | 0° |
| 2026-05-04 03:32 | 51.11837 | -114.02136 | 3556 ft | 33 kts | 359° |
| 2026-05-04 03:32 | 51.11956 | -114.02177 | 3554 ft | 9 kts | 301° |
| 2026-05-04 03:32 | 51.11954 | -114.02235 | 3556 ft | 3 kts | 252° |
| 2026-05-04 03:33 | 51.11949 | -114.02256 | 3556 ft | 2 kts | 250° |
| 2026-05-04 03:33 | 51.11930 | -114.02310 | 3552 ft | 9 kts | 238° |
| 2026-05-04 03:33 | 51.11886 | -114.02397 | 3551 ft | 8 kts | 234° |
| 2026-05-04 03:33 | 51.11882 | -114.02467 | 3554 ft | 6 kts | 277° |
| 2026-05-04 03:34 | 51.11894 | -114.02509 | 3550 ft | 3 kts | 304° |
| 2026-05-04 03:34 | 51.11910 | -114.02543 | 3554 ft | 5 kts | 308° |
| 2026-05-04 03:34 | 51.11945 | -114.02608 | 3550 ft | 10 kts | 307° |
| 2026-05-04 03:34 | 51.11953 | -114.02666 | 3550 ft | 3 kts | 253° |
| 2026-05-04 03:35 | 51.11944 | -114.02683 | 3550 ft | 2 kts | 228° |
| 2026-05-04 03:35 | 51.11923 | -114.02716 | 3551 ft | 3 kts | 226° |
| 2026-05-04 03:35 | 51.11922 | -114.02718 | 3551 ft | 0 kts | 226° |